createdAt,value
2022-10-03T00:00:12.350Z,23.63
2022-10-03T00:02:58.960Z,20.17
2022-10-03T00:05:42.340Z,22.00
2022-10-03T00:08:22.176Z,14.33
2022-10-03T00:11:03.039Z,17.77
2022-10-03T00:13:42.040Z,15.60
2022-10-03T00:16:16.918Z,16.47
2022-10-03T00:18:57.525Z,19.20
2022-10-03T00:21:50.529Z,12.57
2022-10-03T00:24:28.875Z,16.60
2022-10-03T00:27:07.152Z,18.93
2022-10-03T00:30:06.133Z,17.67
2022-10-03T00:32:48.180Z,19.37
2022-10-03T00:35:31.664Z,12.57
2022-10-03T00:38:17.575Z,16.83
2022-10-03T00:41:13.135Z,21.53
2022-10-03T00:44:08.187Z,11.87
2022-10-03T00:46:58.153Z,17.80
2022-10-03T00:50:00.405Z,8.53
2022-10-03T00:52:47.324Z,15.97
2022-10-03T00:55:24.902Z,16.07
2022-10-03T00:58:04.847Z,16.87
2022-10-03T01:00:34.675Z,21.50
2022-10-03T01:03:33.766Z,27.63
2022-10-03T01:06:27.281Z,21.57
2022-10-03T01:09:21.410Z,14.33
2022-10-03T01:12:00.388Z,11.50
2022-10-03T01:14:50.424Z,17.30
2022-10-03T01:17:29.191Z,14.17
2022-10-03T01:20:08.728Z,9.70
2022-10-03T01:23:03.711Z,13.87
2022-10-03T01:25:40.955Z,22.73
2022-10-03T01:28:57.895Z,20.00
2022-10-03T01:31:34.499Z,15.90
2022-10-03T01:34:12.416Z,19.10
2022-10-03T01:36:50.013Z,20.07
2022-10-03T01:39:28.000Z,23.00
2022-10-03T01:42:02.941Z,15.60
2022-10-03T01:44:42.627Z,24.83
2022-10-03T01:47:23.533Z,17.30
2022-10-03T01:49:59.463Z,27.23
2022-10-03T01:52:39.085Z,15.73
2022-10-03T01:55:16.993Z,15.17
2022-10-03T01:57:53.643Z,20.07
2022-10-03T02:00:26.251Z,24.20
2022-10-03T02:03:03.997Z,19.80
2022-10-03T02:05:42.949Z,28.10
2022-10-03T02:08:25.089Z,29.80
2022-10-03T02:11:01.667Z,20.50
2022-10-03T02:13:44.517Z,20.30
2022-10-03T02:16:24.519Z,17.37
2022-10-03T02:18:59.927Z,32.00
2022-10-03T02:21:32.256Z,23.33
2022-10-03T02:24:22.517Z,32.00
2022-10-03T02:27:35.617Z,34.60
2022-10-03T02:30:11.650Z,28.40
2022-10-03T02:33:34.679Z,25.93
2022-10-03T02:36:40.872Z,27.67
2022-10-03T02:39:59.981Z,31.20
2022-10-03T02:43:07.033Z,26.03
2022-10-03T02:46:06.178Z,26.83
2022-10-03T02:48:58.172Z,18.07
2022-10-03T02:52:06.214Z,18.70
2022-10-03T02:55:00.081Z,30.83
2022-10-03T02:58:06.015Z,24.23
2022-10-03T03:00:49.384Z,19.87
2022-10-03T03:03:54.187Z,21.27
2022-10-03T03:06:53.979Z,22.10
2022-10-03T03:10:08.809Z,21.83
2022-10-03T03:13:08.859Z,43.67
2022-10-03T03:16:15.455Z,24.30
2022-10-03T03:18:48.283Z,16.40
2022-10-03T03:21:34.383Z,22.13
2022-10-03T03:24:46.888Z,34.90
2022-10-03T03:27:38.045Z,23.17
2022-10-03T03:30:11.722Z,20.07
2022-10-03T03:32:58.897Z,17.13
2022-10-03T03:35:41.259Z,25.67
2022-10-03T03:38:25.705Z,20.03
2022-10-03T03:41:07.178Z,28.27
2022-10-03T03:43:49.442Z,17.70
2022-10-03T03:46:30.002Z,20.10
2022-10-03T03:49:20.443Z,12.23
2022-10-03T03:52:02.959Z,12.87
2022-10-03T03:55:06.572Z,15.63
2022-10-03T03:57:51.941Z,22.50
2022-10-03T04:00:31.394Z,88.00
2022-10-03T04:03:21.757Z,15.63
2022-10-03T04:06:13.528Z,11.77
2022-10-03T04:09:01.004Z,13.17
2022-10-03T04:11:39.119Z,10.43
2022-10-03T04:14:41.150Z,14.17
2022-10-03T04:17:44.060Z,28.70
2022-10-03T04:20:22.307Z,12.73
2022-10-03T04:23:08.431Z,21.13
2022-10-03T04:26:02.426Z,15.37
2022-10-03T04:28:53.525Z,20.67
2022-10-03T04:31:42.133Z,20.60
2022-10-03T04:34:26.020Z,15.27
2022-10-03T04:37:31.021Z,21.43
2022-10-03T04:40:12.905Z,17.70
2022-10-03T04:42:52.570Z,17.57
2022-10-03T04:45:40.206Z,17.20
2022-10-03T04:48:18.039Z,15.93
2022-10-03T04:51:00.289Z,18.60
2022-10-03T04:53:42.979Z,20.17
2022-10-03T04:56:24.965Z,34.63
2022-10-03T04:59:04.866Z,20.70
2022-10-03T05:01:44.713Z,20.50
2022-10-03T05:04:27.140Z,21.47
2022-10-03T05:07:06.312Z,35.23
2022-10-03T05:09:41.375Z,40.27
2022-10-03T05:12:17.975Z,35.07
2022-10-03T05:15:07.498Z,33.03
2022-10-03T05:17:47.944Z,27.63
2022-10-03T05:20:47.188Z,27.93
2022-10-03T05:23:31.406Z,25.37
2022-10-03T05:26:39.801Z,22.33
2022-10-03T05:29:06.470Z,23.30
2022-10-03T05:31:47.760Z,20.40
2022-10-03T05:34:30.933Z,18.63
2022-10-03T05:37:24.591Z,17.07
2022-10-03T05:40:01.178Z,14.37
2022-10-03T05:42:55.562Z,19.37
2022-10-03T05:45:31.868Z,17.73
2022-10-03T05:48:15.029Z,14.53
2022-10-03T05:51:18.376Z,21.60
2022-10-03T05:54:28.589Z,25.20
2022-10-03T05:57:17.801Z,24.93
2022-10-03T06:00:10.882Z,25.80
2022-10-03T06:03:06.470Z,24.83
2022-10-03T06:06:08.062Z,24.50
2022-10-03T06:09:26.965Z,27.40
2022-10-03T06:12:11.305Z,24.70
2022-10-03T06:15:12.571Z,24.67
2022-10-03T06:17:58.082Z,28.73
2022-10-03T06:21:06.286Z,31.67
2022-10-03T06:24:15.554Z,34.07
2022-10-03T06:27:15.154Z,29.20
2022-10-03T06:30:20.252Z,35.13
2022-10-03T06:33:33.138Z,28.90
2022-10-03T06:36:36.878Z,39.90
2022-10-03T06:40:10.071Z,37.77
2022-10-03T06:43:00.213Z,37.20
2022-10-03T06:46:19.602Z,37.03
2022-10-03T06:49:25.661Z,35.73
2022-10-03T06:52:20.140Z,29.33
2022-10-03T06:55:30.284Z,34.90
2022-10-03T06:58:28.786Z,37.67
2022-10-03T07:01:20.315Z,33.23
2022-10-03T07:04:19.058Z,32.37
2022-10-03T07:07:07.547Z,40.57
2022-10-03T07:10:01.232Z,35.97
2022-10-03T07:12:52.579Z,39.70
2022-10-03T07:16:08.818Z,31.57
2022-10-03T07:19:04.498Z,36.80
2022-10-03T07:22:18.800Z,43.43
2022-10-03T07:25:25.475Z,48.70
2022-10-03T07:28:24.777Z,34.07
2022-10-03T07:31:04.065Z,45.47
2022-10-03T07:34:07.607Z,40.70
2022-10-03T07:37:20.762Z,41.53
2022-10-03T07:40:30.748Z,41.83
2022-10-03T07:43:35.326Z,36.67
2022-10-03T07:46:41.712Z,33.87
2022-10-03T07:49:33.308Z,36.13
2022-10-03T07:52:30.620Z,37.30
2022-10-03T07:55:28.786Z,35.07
2022-10-03T07:58:45.697Z,39.60
2022-10-03T08:01:41.955Z,31.90
2022-10-03T08:04:45.768Z,34.43
2022-10-03T08:07:32.667Z,36.93
2022-10-03T08:10:18.855Z,35.23
2022-10-03T08:13:25.041Z,29.40
2022-10-03T08:16:18.539Z,35.13
2022-10-03T08:19:15.241Z,29.57
2022-10-03T08:22:05.422Z,28.63
2022-10-03T08:25:14.716Z,36.27
2022-10-03T08:27:56.923Z,29.33
2022-10-03T08:30:28.916Z,35.67
2022-10-03T08:33:16.689Z,26.97
2022-10-03T08:36:20.297Z,33.07
2022-10-03T08:39:01.723Z,32.97
2022-10-03T08:42:00.621Z,35.97
2022-10-03T08:45:11.143Z,30.10
2022-10-03T08:48:31.771Z,29.83
2022-10-03T08:51:41.729Z,21.00
2022-10-03T08:54:27.910Z,22.00
2022-10-03T08:57:18.974Z,39.13
2022-10-03T09:00:15.304Z,26.33
2022-10-03T09:03:34.274Z,24.67
2022-10-03T09:07:12.100Z,21.80
2022-10-03T09:10:14.047Z,26.47
2022-10-03T09:13:09.596Z,25.70
2022-10-03T09:16:20.944Z,22.63
2022-10-03T09:19:18.756Z,21.97
2022-10-03T09:22:09.665Z,19.37
2022-10-03T09:25:20.366Z,22.27
2022-10-03T09:28:31.677Z,22.00
2022-10-03T09:31:12.822Z,22.10
2022-10-03T09:34:17.414Z,21.70
2022-10-03T09:37:40.011Z,19.27
2022-10-03T09:40:31.423Z,16.17
2022-10-03T09:43:41.714Z,17.50
2022-10-03T09:47:10.255Z,16.00
2022-10-03T09:50:19.499Z,17.00
2022-10-03T09:53:13.303Z,19.10
2022-10-03T09:56:01.786Z,19.13
2022-10-03T09:59:05.489Z,15.80
2022-10-03T10:01:41.632Z,15.80
2022-10-03T10:05:01.462Z,16.87
2022-10-03T10:08:12.594Z,16.40
2022-10-03T10:11:04.798Z,13.97
2022-10-03T10:14:11.127Z,11.63
2022-10-03T10:16:55.086Z,12.77
2022-10-03T10:19:47.221Z,11.07
2022-10-03T10:23:08.156Z,17.17
2022-10-03T10:26:21.493Z,15.57
2022-10-03T10:29:18.618Z,16.07
2022-10-03T10:32:36.054Z,13.53
2022-10-03T10:35:59.938Z,9.00
2022-10-03T10:39:10.792Z,12.27
2022-10-03T10:42:43.550Z,13.73
2022-10-03T10:45:57.065Z,9.63
2022-10-03T10:49:18.924Z,11.03
2022-10-03T10:52:26.909Z,13.20
2022-10-03T10:55:45.966Z,11.10
2022-10-03T10:58:47.034Z,13.27
2022-10-03T11:01:53.050Z,14.47
2022-10-03T11:05:09.487Z,9.70
2022-10-03T11:08:19.229Z,9.77
2022-10-03T11:11:07.078Z,8.93
2022-10-03T11:14:10.868Z,9.43
2022-10-03T11:17:16.033Z,12.40
2022-10-03T11:20:34.209Z,12.13
2022-10-03T11:23:39.570Z,11.37
2022-10-03T11:27:01.969Z,8.37
2022-10-03T11:30:18.816Z,10.03
2022-10-03T11:33:21.439Z,6.50
2022-10-03T11:36:34.542Z,7.67
2022-10-03T11:39:06.165Z,9.23
2022-10-03T11:41:52.557Z,5.30
2022-10-03T11:44:24.627Z,8.30
2022-10-03T11:47:03.546Z,8.30
2022-10-03T11:50:00.087Z,8.40
2022-10-03T11:52:34.513Z,12.57
2022-10-03T11:55:21.351Z,7.53
2022-10-03T11:58:01.923Z,7.73
2022-10-03T12:00:37.379Z,9.77
2022-10-03T12:03:19.917Z,8.53
2022-10-03T12:06:17.819Z,8.50
2022-10-03T12:09:00.590Z,7.37
2022-10-03T12:11:34.215Z,8.73
2022-10-03T12:14:22.202Z,7.70
2022-10-03T12:17:05.495Z,10.47
2022-10-03T12:19:42.740Z,6.83
2022-10-03T12:22:24.106Z,10.27
2022-10-03T12:25:02.514Z,11.20
2022-10-03T12:27:39.622Z,10.63
2022-10-03T12:30:16.430Z,5.83
2022-10-03T12:33:00.929Z,9.30
2022-10-03T12:35:42.120Z,10.60
2022-10-03T12:38:27.428Z,7.10
2022-10-03T12:41:08.280Z,6.87
2022-10-03T12:43:50.710Z,9.83
2022-10-03T12:46:31.879Z,4.27
2022-10-03T12:49:05.015Z,13.90
2022-10-03T12:51:53.206Z,7.20
2022-10-03T12:54:52.897Z,8.40
2022-10-03T12:57:54.918Z,11.27
2022-10-03T13:00:27.034Z,9.90
2022-10-03T13:03:15.239Z,10.40
2022-10-03T13:06:07.478Z,10.03
2022-10-03T13:09:01.340Z,10.73
2022-10-03T13:11:46.045Z,6.40
2022-10-03T13:14:29.449Z,7.27
2022-10-03T13:17:10.185Z,8.10
2022-10-03T13:19:49.758Z,5.53
2022-10-03T13:22:32.529Z,6.83
2022-10-03T13:25:05.489Z,10.33
2022-10-03T13:27:42.366Z,9.40
2022-10-03T13:30:21.361Z,11.97
2022-10-03T13:32:56.108Z,8.33
2022-10-03T13:35:53.994Z,6.80
2022-10-03T13:38:46.301Z,9.23
2022-10-03T13:41:28.227Z,7.03
2022-10-03T13:44:00.769Z,7.77
2022-10-03T13:46:40.725Z,12.03
2022-10-03T13:49:19.035Z,10.40
2022-10-03T13:51:57.247Z,9.40
2022-10-03T13:54:48.061Z,9.63
2022-10-03T13:57:20.163Z,8.73
2022-10-03T14:00:04.841Z,5.17
2022-10-03T14:02:52.148Z,8.53
2022-10-03T14:05:43.322Z,6.83
2022-10-03T14:08:23.896Z,8.70
2022-10-03T14:11:07.707Z,8.63
2022-10-03T14:13:52.683Z,7.03
2022-10-03T14:16:28.383Z,9.57
2022-10-03T14:19:06.075Z,10.27
2022-10-03T14:22:09.778Z,9.03
2022-10-03T14:24:46.789Z,12.40
2022-10-03T14:27:49.226Z,10.77
2022-10-03T14:30:23.174Z,6.23
2022-10-03T14:33:10.999Z,6.93
2022-10-03T14:35:47.140Z,7.53
2022-10-03T14:38:48.573Z,9.83
2022-10-03T14:41:21.815Z,9.67
2022-10-03T14:43:53.382Z,10.90
2022-10-03T14:46:25.969Z,12.17
2022-10-03T14:48:59.967Z,9.97
2022-10-03T14:51:35.000Z,11.27
2022-10-03T14:54:08.541Z,6.23
2022-10-03T14:56:46.446Z,10.40
2022-10-03T14:59:20.636Z,7.53
2022-10-03T15:01:52.974Z,14.87
2022-10-03T15:04:33.755Z,4.97
2022-10-03T15:07:04.549Z,8.93
2022-10-03T15:09:43.488Z,9.63
2022-10-03T15:12:16.883Z,10.43
2022-10-03T15:14:50.841Z,11.13
2022-10-03T15:17:23.221Z,11.43
2022-10-03T15:19:55.504Z,9.43
2022-10-03T15:22:33.740Z,5.87
2022-10-03T15:25:08.119Z,10.50
2022-10-03T15:27:41.202Z,10.33
2022-10-03T15:30:22.464Z,11.07
2022-10-03T15:32:53.102Z,8.87
2022-10-03T15:35:27.431Z,11.80
2022-10-03T15:38:06.902Z,13.83
2022-10-03T15:40:39.821Z,10.50
2022-10-03T15:43:24.154Z,9.03
2022-10-03T15:45:53.423Z,7.07
2022-10-03T15:48:26.219Z,13.67
2022-10-03T15:50:58.548Z,13.43
2022-10-03T15:53:36.446Z,10.87
2022-10-03T15:56:15.211Z,5.43
2022-10-03T15:58:49.541Z,7.63
2022-10-03T16:01:22.183Z,8.90
2022-10-03T16:03:53.825Z,5.97
2022-10-03T16:06:26.212Z,10.90
2022-10-03T16:09:01.461Z,12.43
2022-10-03T16:11:35.066Z,9.30
2022-10-03T16:14:15.793Z,6.97
2022-10-03T16:16:49.540Z,11.90
2022-10-03T16:19:32.887Z,7.13
2022-10-03T16:22:25.884Z,9.60
2022-10-03T16:25:06.438Z,6.13
2022-10-03T16:27:38.612Z,7.93
2022-10-03T16:30:21.626Z,10.43
2022-10-03T16:32:58.239Z,9.77
2022-10-03T16:35:34.610Z,8.97
2022-10-03T16:38:06.859Z,5.60
2022-10-03T16:40:39.142Z,8.03
2022-10-03T16:43:11.590Z,8.70
2022-10-03T16:45:45.918Z,7.50
2022-10-03T16:48:38.164Z,8.70
2022-10-03T16:51:15.112Z,5.73
2022-10-03T16:53:45.050Z,18.73
2022-10-03T16:56:18.742Z,10.83
2022-10-03T16:58:54.071Z,7.13
2022-10-03T17:01:32.980Z,5.83
2022-10-03T17:04:16.893Z,16.80
2022-10-03T17:06:48.839Z,11.50
2022-10-03T17:09:26.334Z,7.20
2022-10-03T17:12:00.853Z,11.40
2022-10-03T17:14:35.715Z,15.37
2022-10-03T17:17:08.890Z,10.83
2022-10-03T17:19:42.595Z,12.57
2022-10-03T17:22:19.619Z,22.80
2022-10-03T17:24:54.056Z,13.90
2022-10-03T17:27:29.626Z,12.03
2022-10-03T17:30:03.244Z,19.20
2022-10-03T17:32:38.385Z,12.10
2022-10-03T17:35:15.453Z,14.53
2022-10-03T17:38:19.575Z,13.17
2022-10-03T17:41:00.257Z,9.90
2022-10-03T17:43:37.612Z,12.17
2022-10-03T17:46:13.869Z,12.43
2022-10-03T17:48:51.681Z,10.93
2022-10-03T17:51:32.651Z,11.27
2022-10-03T17:54:04.381Z,15.53
2022-10-03T17:56:35.058Z,15.03
2022-10-03T17:59:09.130Z,8.27
2022-10-03T18:01:43.130Z,14.80
2022-10-03T18:04:19.082Z,6.13
2022-10-03T18:06:50.695Z,9.83
2022-10-03T18:09:28.259Z,5.93
2022-10-03T18:12:12.603Z,14.20
2022-10-03T18:14:54.002Z,6.43
2022-10-03T18:17:32.538Z,8.73
2022-10-03T18:20:15.547Z,9.90
2022-10-03T18:22:49.135Z,11.47
2022-10-03T18:25:41.393Z,8.10
2022-10-03T18:28:18.622Z,9.03
2022-10-03T18:30:53.707Z,14.63
2022-10-03T18:33:29.248Z,14.73
2022-10-03T18:35:58.720Z,12.00
2022-10-03T18:38:30.685Z,15.67
2022-10-03T18:41:01.097Z,13.67
2022-10-03T18:43:33.740Z,14.80
2022-10-03T18:46:14.164Z,11.13
2022-10-03T18:49:09.132Z,12.53
2022-10-03T18:51:40.790Z,13.67
2022-10-03T18:54:26.382Z,16.13
2022-10-03T18:57:07.463Z,13.20
2022-10-03T18:59:45.270Z,15.33
2022-10-03T19:02:24.621Z,8.27
2022-10-03T19:04:56.947Z,11.70
2022-10-03T19:07:27.756Z,10.40
2022-10-03T19:10:31.729Z,9.27
2022-10-03T19:13:12.045Z,14.17
2022-10-03T19:15:51.416Z,9.27
2022-10-03T19:18:27.880Z,9.33
2022-10-03T19:21:00.187Z,12.07
2022-10-03T19:23:36.197Z,15.97
2022-10-03T19:26:11.100Z,8.87
2022-10-03T19:28:48.343Z,13.03
2022-10-03T19:31:22.849Z,7.73
2022-10-03T19:33:55.857Z,15.37
2022-10-03T19:36:29.047Z,11.07
2022-10-03T19:38:59.161Z,11.73
2022-10-03T19:41:31.973Z,12.13
2022-10-03T19:44:06.298Z,15.93
2022-10-03T19:46:59.180Z,11.53
2022-10-03T19:49:48.944Z,8.53
2022-10-03T19:52:26.807Z,5.07
2022-10-03T19:55:01.934Z,8.73
2022-10-03T19:57:40.455Z,4.40
2022-10-03T20:00:22.680Z,11.10
2022-10-03T20:02:57.179Z,6.87
2022-10-03T20:05:58.800Z,13.47
2022-10-03T20:08:36.609Z,11.97
2022-10-03T20:11:17.844Z,8.63
2022-10-03T20:13:49.107Z,7.80
2022-10-03T20:16:25.797Z,10.80
2022-10-03T20:18:58.083Z,8.33
2022-10-03T20:21:33.554Z,12.20
2022-10-03T20:24:03.430Z,11.40
2022-10-03T20:26:38.619Z,18.87
2022-10-03T20:29:33.446Z,11.27
2022-10-03T20:32:03.506Z,12.23
2022-10-03T20:34:34.835Z,8.67
2022-10-03T20:37:27.200Z,26.10
2022-10-03T20:40:04.234Z,15.77
2022-10-03T20:42:33.528Z,14.33
2022-10-03T20:45:05.349Z,10.00
2022-10-03T20:47:59.897Z,8.67
2022-10-03T20:50:34.442Z,8.27
2022-10-03T20:53:11.668Z,10.90
2022-10-03T20:55:49.434Z,13.00
2022-10-03T20:58:24.071Z,14.57
2022-10-03T21:00:59.391Z,12.73
2022-10-03T21:03:34.360Z,13.73
2022-10-03T21:06:05.682Z,9.07
2022-10-03T21:08:39.185Z,11.73
2022-10-03T21:11:20.741Z,9.17
2022-10-03T21:13:54.308Z,16.70
2022-10-03T21:16:25.525Z,11.07
2022-10-03T21:18:59.026Z,16.77
2022-10-03T21:21:31.475Z,15.00
2022-10-03T21:24:07.751Z,15.20
2022-10-03T21:26:46.459Z,10.37
2022-10-03T21:29:26.744Z,12.20
2022-10-03T21:32:08.806Z,18.50
2022-10-03T21:34:45.503Z,16.17
2022-10-03T21:37:19.646Z,13.97
2022-10-03T21:40:01.073Z,11.23
2022-10-03T21:42:35.399Z,16.93
2022-10-03T21:45:21.590Z,11.93
2022-10-03T21:47:55.346Z,15.47
2022-10-03T21:50:28.723Z,8.97
2022-10-03T21:53:16.006Z,15.73
2022-10-03T21:55:58.094Z,21.23
2022-10-03T21:58:50.917Z,12.87
2022-10-03T22:01:26.309Z,12.00
2022-10-03T22:04:01.592Z,17.23
2022-10-03T22:06:37.208Z,11.30
2022-10-03T22:09:15.611Z,11.17
2022-10-03T22:11:52.703Z,14.47
2022-10-03T22:14:31.885Z,11.37
2022-10-03T22:17:07.865Z,15.50
2022-10-03T22:19:41.106Z,15.17
2022-10-03T22:22:21.172Z,10.97
2022-10-03T22:24:59.569Z,11.87
2022-10-03T22:27:36.666Z,16.23
2022-10-03T22:30:08.438Z,17.70
2022-10-03T22:32:45.448Z,12.27
2022-10-03T22:35:28.535Z,11.10
2022-10-03T22:37:57.864Z,15.70
2022-10-03T22:40:27.474Z,13.00
2022-10-03T22:43:02.155Z,18.53
2022-10-03T22:45:36.615Z,16.10
2022-10-03T22:48:11.227Z,14.43
2022-10-03T22:50:42.342Z,21.20
2022-10-03T22:53:14.790Z,13.07
2022-10-03T22:55:49.818Z,9.90
2022-10-03T22:58:21.312Z,10.20
2022-10-03T23:00:52.935Z,18.40
2022-10-03T23:03:26.658Z,15.33
2022-10-03T23:06:12.261Z,12.57
2022-10-03T23:08:50.190Z,12.07
2022-10-03T23:11:24.502Z,17.77
2022-10-03T23:13:57.917Z,14.23
2022-10-03T23:16:51.798Z,14.97
2022-10-03T23:19:36.252Z,24.10
2022-10-03T23:22:07.748Z,12.57
2022-10-03T23:24:43.062Z,13.63
2022-10-03T23:27:37.902Z,12.00
2022-10-03T23:30:55.432Z,17.17
2022-10-03T23:33:51.274Z,20.30
2022-10-03T23:36:24.557Z,15.17
2022-10-03T23:38:59.627Z,24.67
2022-10-03T23:42:01.106Z,20.57
2022-10-03T23:44:36.871Z,17.97
2022-10-03T23:47:07.841Z,15.33
2022-10-03T23:49:40.769Z,14.33
2022-10-03T23:52:18.523Z,13.67
2022-10-03T23:54:49.324Z,17.50
2022-10-03T23:57:20.245Z,12.00
2022-10-03T23:59:50.148Z,13.73
